sensor_id;sensor_type;location;lat;lon;timestamp;pressure;altitude;pressure_sealevel;temperature
67966;BMP280;54749;47.850;9.002;2023-06-14T00:01:36;95420.50;;;11.16
67966;BMP280;54749;47.850;9.002;2023-06-14T00:04:05;95415.28;;;11.08
67966;BMP280;54749;47.850;9.002;2023-06-14T00:06:33;95421.50;;;11.04
67966;BMP280;54749;47.850;9.002;2023-06-14T00:09:01;95421.38;;;10.96
67966;BMP280;54749;47.850;9.002;2023-06-14T00:11:28;95424.03;;;10.85
67966;BMP280;54749;47.850;9.002;2023-06-14T00:13:57;95438.34;;;10.76
67966;BMP280;54749;47.850;9.002;2023-06-14T00:16:24;95427.69;;;10.63
67966;BMP280;54749;47.850;9.002;2023-06-14T00:18:52;95425.00;;;10.55
67966;BMP280;54749;47.850;9.002;2023-06-14T00:21:19;95425.88;;;10.45
67966;BMP280;54749;47.850;9.002;2023-06-14T00:23:46;95427.31;;;10.38
67966;BMP280;54749;47.850;9.002;2023-06-14T00:26:13;95427.03;;;10.32
67966;BMP280;54749;47.850;9.002;2023-06-14T00:28:43;95429.13;;;10.27
67966;BMP280;54749;47.850;9.002;2023-06-14T00:31:10;95429.75;;;10.20
67966;BMP280;54749;47.850;9.002;2023-06-14T00:33:38;95429.44;;;10.14
67966;BMP280;54749;47.850;9.002;2023-06-14T00:36:05;95426.13;;;10.13
67966;BMP280;54749;47.850;9.002;2023-06-14T00:38:32;95425.56;;;10.10
67966;BMP280;54749;47.850;9.002;2023-06-14T00:41:00;95427.44;;;10.08
67966;BMP280;54749;47.850;9.002;2023-06-14T00:43:28;95427.66;;;10.05
67966;BMP280;54749;47.850;9.002;2023-06-14T00:45:55;95430.81;;;9.98
67966;BMP280;54749;47.850;9.002;2023-06-14T00:48:23;95425.97;;;9.85
67966;BMP280;54749;47.850;9.002;2023-06-14T00:50:51;95428.75;;;9.72
67966;BMP280;54749;47.850;9.002;2023-06-14T00:53:20;95419.41;;;9.63
67966;BMP280;54749;47.850;9.002;2023-06-14T00:55:50;95427.09;;;9.62
67966;BMP280;54749;47.850;9.002;2023-06-14T00:58:19;95416.56;;;9.57
67966;BMP280;54749;47.850;9.002;2023-06-14T01:00:48;95412.47;;;9.56
67966;BMP280;54749;47.850;9.002;2023-06-14T01:03:16;95416.56;;;9.57
67966;BMP280;54749;47.850;9.002;2023-06-14T01:05:55;95410.59;;;9.58
67966;BMP280;54749;47.850;9.002;2023-06-14T01:08:47;95419.97;;;9.46
67966;BMP280;54749;47.850;9.002;2023-06-14T01:11:28;95421.94;;;9.43
67966;BMP280;54749;47.850;9.002;2023-06-14T01:14:00;95419.31;;;9.34
67966;BMP280;54749;47.850;9.002;2023-06-14T01:16:30;95421.66;;;9.26
67966;BMP280;54749;47.850;9.002;2023-06-14T01:18:58;95418.69;;;9.21
67966;BMP280;54749;47.850;9.002;2023-06-14T01:21:26;95425.44;;;9.21
67966;BMP280;54749;47.850;9.002;2023-06-14T01:23:53;95414.81;;;9.17
67966;BMP280;54749;47.850;9.002;2023-06-14T01:26:22;95411.50;;;9.06
67966;BMP280;54749;47.850;9.002;2023-06-14T01:28:52;95421.50;;;8.97
67966;BMP280;54749;47.850;9.002;2023-06-14T01:31:25;95418.53;;;8.92
67966;BMP280;54749;47.850;9.002;2023-06-14T01:33:53;95419.34;;;8.92
67966;BMP280;54749;47.850;9.002;2023-06-14T01:36:23;95413.28;;;8.95
67966;BMP280;54749;47.850;9.002;2023-06-14T01:38:59;95404.88;;;9.05
67966;BMP280;54749;47.850;9.002;2023-06-14T01:41:26;95411.00;;;9.23
67966;BMP280;54749;47.850;9.002;2023-06-14T01:43:56;95399.41;;;9.51
67966;BMP280;54749;47.850;9.002;2023-06-14T01:46:25;95405.00;;;9.54
67966;BMP280;54749;47.850;9.002;2023-06-14T01:48:54;95394.66;;;9.57
67966;BMP280;54749;47.850;9.002;2023-06-14T01:51:21;95404.28;;;9.63
67966;BMP280;54749;47.850;9.002;2023-06-14T01:53:48;95396.22;;;9.69
67966;BMP280;54749;47.850;9.002;2023-06-14T01:56:15;95396.34;;;9.67
67966;BMP280;54749;47.850;9.002;2023-06-14T01:58:43;95396.09;;;9.70
67966;BMP280;54749;47.850;9.002;2023-06-14T02:01:10;95400.09;;;9.73
67966;BMP280;54749;47.850;9.002;2023-06-14T02:03:39;95389.56;;;9.88
67966;BMP280;54749;47.850;9.002;2023-06-14T02:06:06;95389.63;;;9.97
67966;BMP280;54749;47.850;9.002;2023-06-14T02:08:34;95389.56;;;10.08
67966;BMP280;54749;47.850;9.002;2023-06-14T02:11:01;95393.13;;;10.05
67966;BMP280;54749;47.850;9.002;2023-06-14T02:13:29;95392.25;;;10.15
67966;BMP280;54749;47.850;9.002;2023-06-14T02:15:56;95385.38;;;10.27
67966;BMP280;54749;47.850;9.002;2023-06-14T02:18:24;95392.72;;;10.30
67966;BMP280;54749;47.850;9.002;2023-06-14T02:20:52;95391.94;;;10.29
67966;BMP280;54749;47.850;9.002;2023-06-14T02:23:19;95381.34;;;10.44
67966;BMP280;54749;47.850;9.002;2023-06-14T02:25:46;95387.50;;;10.51
67966;BMP280;54749;47.850;9.002;2023-06-14T02:28:14;95391.59;;;10.52
67966;BMP280;54749;47.850;9.002;2023-06-14T02:30:41;95386.72;;;10.60
67966;BMP280;54749;47.850;9.002;2023-06-14T02:33:08;95393.50;;;10.59
67966;BMP280;54749;47.850;9.002;2023-06-14T02:35:39;95392.97;;;10.65
67966;BMP280;54749;47.850;9.002;2023-06-14T02:38:08;95400.53;;;10.65
67966;BMP280;54749;47.850;9.002;2023-06-14T02:40:35;95400.81;;;10.62
67966;BMP280;54749;47.850;9.002;2023-06-14T02:43:02;95406.69;;;10.72
67966;BMP280;54749;47.850;9.002;2023-06-14T02:45:30;95407.19;;;10.66
67966;BMP280;54749;47.850;9.002;2023-06-14T02:47:57;95406.53;;;10.64
67966;BMP280;54749;47.850;9.002;2023-06-14T02:50:24;95406.41;;;10.66
67966;BMP280;54749;47.850;9.002;2023-06-14T02:52:53;95407.47;;;10.63
67966;BMP280;54749;47.850;9.002;2023-06-14T02:55:22;95396.81;;;10.60
67966;BMP280;54749;47.850;9.002;2023-06-14T02:57:50;95402.16;;;10.66
67966;BMP280;54749;47.850;9.002;2023-06-14T03:00:17;95397.63;;;10.60
67966;BMP280;54749;47.850;9.002;2023-06-14T03:02:47;95387.53;;;10.60
67966;BMP280;54749;47.850;9.002;2023-06-14T03:05:14;95399.38;;;10.69
67966;BMP280;54749;47.850;9.002;2023-06-14T03:07:42;95385.97;;;10.78
67966;BMP280;54749;47.850;9.002;2023-06-14T03:10:12;95404.16;;;10.72
67966;BMP280;54749;47.850;9.002;2023-06-14T03:12:42;95405.59;;;10.65
67966;BMP280;54749;47.850;9.002;2023-06-14T03:15:10;95407.88;;;10.68
67966;BMP280;54749;47.850;9.002;2023-06-14T03:17:44;95412.25;;;10.66
67966;BMP280;54749;47.850;9.002;2023-06-14T03:20:14;95412.03;;;10.69
67966;BMP280;54749;47.850;9.002;2023-06-14T03:22:43;95407.19;;;10.66
67966;BMP280;54749;47.850;9.002;2023-06-14T03:25:13;95416.13;;;10.70
67966;BMP280;54749;47.850;9.002;2023-06-14T03:27:42;95410.53;;;10.67
67966;BMP280;54749;47.850;9.002;2023-06-14T03:30:09;95402.41;;;10.63
67966;BMP280;54749;47.850;9.002;2023-06-14T03:32:37;95406.44;;;10.75
67966;BMP280;54749;47.850;9.002;2023-06-14T03:35:05;95408.59;;;10.88
67966;BMP280;54749;47.850;9.002;2023-06-14T03:37:33;95400.63;;;11.02
67966;BMP280;54749;47.850;9.002;2023-06-14T03:40:00;95414.75;;;11.14
67966;BMP280;54749;47.850;9.002;2023-06-14T03:42:31;95413.03;;;11.23
67966;BMP280;54749;47.850;9.002;2023-06-14T03:44:58;95418.53;;;11.38
67966;BMP280;54749;47.850;9.002;2023-06-14T03:47:26;95420.41;;;11.63
67966;BMP280;54749;47.850;9.002;2023-06-14T03:49:55;95413.22;;;11.68
67966;BMP280;54749;47.850;9.002;2023-06-14T03:52:22;95416.28;;;11.72
67966;BMP280;54749;47.850;9.002;2023-06-14T03:54:50;95417.47;;;11.77
67966;BMP280;54749;47.850;9.002;2023-06-14T03:57:23;95420.75;;;11.87
67966;BMP280;54749;47.850;9.002;2023-06-14T03:59:50;95427.81;;;11.92
67966;BMP280;54749;47.850;9.002;2023-06-14T04:02:18;95430.75;;;11.97
67966;BMP280;54749;47.850;9.002;2023-06-14T04:04:46;95431.00;;;12.04
67966;BMP280;54749;47.850;9.002;2023-06-14T04:07:15;95430.47;;;12.09
67966;BMP280;54749;47.850;9.002;2023-06-14T04:09:46;95432.97;;;12.19
67966;BMP280;54749;47.850;9.002;2023-06-14T04:12:13;95439.88;;;12.26
67966;BMP280;54749;47.850;9.002;2023-06-14T04:14:40;95447.16;;;12.38
67966;BMP280;54749;47.850;9.002;2023-06-14T04:17:10;95446.31;;;12.65
67966;BMP280;54749;47.850;9.002;2023-06-14T04:19:38;95439.19;;;13.82
67966;BMP280;54749;47.850;9.002;2023-06-14T04:22:05;95436.06;;;15.19
67966;BMP280;54749;47.850;9.002;2023-06-14T04:24:34;95435.50;;;16.49
67966;BMP280;54749;47.850;9.002;2023-06-14T04:27:03;95427.16;;;17.46
67966;BMP280;54749;47.850;9.002;2023-06-14T04:29:30;95421.31;;;18.11
67966;BMP280;54749;47.850;9.002;2023-06-14T04:32:05;95428.69;;;18.78
67966;BMP280;54749;47.850;9.002;2023-06-14T04:34:37;95420.09;;;18.71
67966;BMP280;54749;47.850;9.002;2023-06-14T04:37:07;95422.78;;;18.92
67966;BMP280;54749;47.850;9.002;2023-06-14T04:39:37;95418.84;;;19.24
67966;BMP280;54749;47.850;9.002;2023-06-14T04:42:05;95417.19;;;19.85
67966;BMP280;54749;47.850;9.002;2023-06-14T04:44:34;95423.66;;;20.02
67966;BMP280;54749;47.850;9.002;2023-06-14T04:47:04;95424.41;;;20.17
67966;BMP280;54749;47.850;9.002;2023-06-14T04:49:31;95426.19;;;20.63
67966;BMP280;54749;47.850;9.002;2023-06-14T04:52:00;95415.47;;;21.26
67966;BMP280;54749;47.850;9.002;2023-06-14T04:54:40;95420.47;;;21.92
67966;BMP280;54749;47.850;9.002;2023-06-14T04:57:15;95416.44;;;21.71
67966;BMP280;54749;47.850;9.002;2023-06-14T04:59:47;95414.94;;;22.01
67966;BMP280;54749;47.850;9.002;2023-06-14T05:02:14;95416.75;;;22.51
67966;BMP280;54749;47.850;9.002;2023-06-14T05:04:42;95399.91;;;22.81
67966;BMP280;54749;47.850;9.002;2023-06-14T05:07:10;95402.88;;;23.52
67966;BMP280;54749;47.850;9.002;2023-06-14T05:09:37;95407.91;;;24.38
67966;BMP280;54749;47.850;9.002;2023-06-14T05:12:05;95393.03;;;25.40
67966;BMP280;54749;47.850;9.002;2023-06-14T05:14:34;95404.66;;;25.95
67966;BMP280;54749;47.850;9.002;2023-06-14T05:17:03;95399.09;;;26.93
67966;BMP280;54749;47.850;9.002;2023-06-14T05:19:30;95400.50;;;27.45
67966;BMP280;54749;47.850;9.002;2023-06-14T05:21:57;95390.56;;;27.65
67966;BMP280;54749;47.850;9.002;2023-06-14T05:24:24;95395.63;;;28.26
67966;BMP280;54749;47.850;9.002;2023-06-14T05:26:52;95392.00;;;28.75
67966;BMP280;54749;47.850;9.002;2023-06-14T05:29:20;95390.31;;;29.17
67966;BMP280;54749;47.850;9.002;2023-06-14T05:31:47;95389.19;;;29.71
67966;BMP280;54749;47.850;9.002;2023-06-14T05:34:14;95376.66;;;29.89
67966;BMP280;54749;47.850;9.002;2023-06-14T05:36:41;95376.56;;;30.61
67966;BMP280;54749;47.850;9.002;2023-06-14T05:39:09;95390.66;;;30.60
67966;BMP280;54749;47.850;9.002;2023-06-14T05:41:37;95384.28;;;30.77
67966;BMP280;54749;47.850;9.002;2023-06-14T05:44:04;95393.84;;;31.43
67966;BMP280;54749;47.850;9.002;2023-06-14T05:46:31;95391.06;;;31.14
67966;BMP280;54749;47.850;9.002;2023-06-14T05:48:59;95392.41;;;31.66
67966;BMP280;54749;47.850;9.002;2023-06-14T05:51:26;95391.56;;;31.51
67966;BMP280;54749;47.850;9.002;2023-06-14T05:53:53;95396.19;;;32.00
67966;BMP280;54749;47.850;9.002;2023-06-14T05:56:21;95386.13;;;32.42
67966;BMP280;54749;47.850;9.002;2023-06-14T05:58:49;95391.28;;;32.22
67966;BMP280;54749;47.850;9.002;2023-06-14T06:01:16;95398.66;;;32.64
67966;BMP280;54749;47.850;9.002;2023-06-14T06:03:43;95403.38;;;32.62
67966;BMP280;54749;47.850;9.002;2023-06-14T06:06:14;95398.31;;;32.17
67966;BMP280;54749;47.850;9.002;2023-06-14T06:08:41;95398.34;;;32.32
67966;BMP280;54749;47.850;9.002;2023-06-14T06:11:08;95404.97;;;32.92
67966;BMP280;54749;47.850;9.002;2023-06-14T06:13:35;95396.03;;;33.23
67966;BMP280;54749;47.850;9.002;2023-06-14T06:16:03;95401.00;;;33.29
67966;BMP280;54749;47.850;9.002;2023-06-14T06:18:31;95396.31;;;33.07
67966;BMP280;54749;47.850;9.002;2023-06-14T06:20:58;95403.84;;;33.47
67966;BMP280;54749;47.850;9.002;2023-06-14T06:23:25;95392.41;;;33.95
67966;BMP280;54749;47.850;9.002;2023-06-14T06:25:53;95392.81;;;34.12
67966;BMP280;54749;47.850;9.002;2023-06-14T06:28:23;95391.63;;;34.79
67966;BMP280;54749;47.850;9.002;2023-06-14T06:30:50;95407.00;;;33.44
67966;BMP280;54749;47.850;9.002;2023-06-14T06:33:17;95400.19;;;34.10
67966;BMP280;54749;47.850;9.002;2023-06-14T06:35:45;95401.59;;;33.93
67966;BMP280;54749;47.850;9.002;2023-06-14T06:38:12;95398.91;;;35.15
67966;BMP280;54749;47.850;9.002;2023-06-14T06:40:39;95386.91;;;35.04
67966;BMP280;54749;47.850;9.002;2023-06-14T06:43:06;95394.66;;;35.23
67966;BMP280;54749;47.850;9.002;2023-06-14T06:45:41;95401.56;;;34.50
67966;BMP280;54749;47.850;9.002;2023-06-14T06:48:08;95398.59;;;34.93
67966;BMP280;54749;47.850;9.002;2023-06-14T06:50:37;95404.44;;;35.18
67966;BMP280;54749;47.850;9.002;2023-06-14T06:53:05;95409.22;;;33.94
67966;BMP280;54749;47.850;9.002;2023-06-14T06:55:33;95407.63;;;34.83
67966;BMP280;54749;47.850;9.002;2023-06-14T06:58:01;95421.56;;;33.74
67966;BMP280;54749;47.850;9.002;2023-06-14T07:00:28;95417.63;;;33.81
67966;BMP280;54749;47.850;9.002;2023-06-14T07:02:55;95426.97;;;34.59
67966;BMP280;54749;47.850;9.002;2023-06-14T07:05:24;95414.81;;;35.00
67966;BMP280;54749;47.850;9.002;2023-06-14T07:07:51;95403.28;;;35.97
67966;BMP280;54749;47.850;9.002;2023-06-14T07:10:20;95414.03;;;37.09
67966;BMP280;54749;47.850;9.002;2023-06-14T07:12:47;95400.38;;;37.90
67966;BMP280;54749;47.850;9.002;2023-06-14T07:15:14;95404.41;;;37.88
67966;BMP280;54749;47.850;9.002;2023-06-14T07:17:42;95412.94;;;36.97
67966;BMP280;54749;47.850;9.002;2023-06-14T07:20:10;95421.41;;;35.76
67966;BMP280;54749;47.850;9.002;2023-06-14T07:22:41;95419.09;;;35.74
67966;BMP280;54749;47.850;9.002;2023-06-14T07:25:10;95415.16;;;36.36
67966;BMP280;54749;47.850;9.002;2023-06-14T07:27:43;95414.34;;;35.94
67966;BMP280;54749;47.850;9.002;2023-06-14T07:30:11;95405.66;;;37.33
67966;BMP280;54749;47.850;9.002;2023-06-14T07:32:38;95414.47;;;36.66
67966;BMP280;54749;47.850;9.002;2023-06-14T07:35:06;95417.63;;;36.99
67966;BMP280;54749;47.850;9.002;2023-06-14T07:37:33;95420.38;;;36.90
67966;BMP280;54749;47.850;9.002;2023-06-14T07:40:01;95409.19;;;37.29
67966;BMP280;54749;47.850;9.002;2023-06-14T07:42:31;95420.50;;;36.49
67966;BMP280;54749;47.850;9.002;2023-06-14T07:44:58;95436.28;;;35.67
67966;BMP280;54749;47.850;9.002;2023-06-14T07:47:25;95422.41;;;36.26
67966;BMP280;54749;47.850;9.002;2023-06-14T07:49:53;95421.84;;;35.37
67966;BMP280;54749;47.850;9.002;2023-06-14T07:52:20;95425.97;;;36.34
67966;BMP280;54749;47.850;9.002;2023-06-14T07:54:48;95422.34;;;36.30
67966;BMP280;54749;47.850;9.002;2023-06-14T07:57:15;95419.41;;;36.86
67966;BMP280;54749;47.850;9.002;2023-06-14T07:59:42;95422.13;;;36.63
67966;BMP280;54749;47.850;9.002;2023-06-14T08:02:09;95417.13;;;36.98
67966;BMP280;54749;47.850;9.002;2023-06-14T08:04:36;95408.00;;;37.66
67966;BMP280;54749;47.850;9.002;2023-06-14T08:07:03;95430.22;;;34.84
67966;BMP280;54749;47.850;9.002;2023-06-14T08:09:35;95418.72;;;35.81
67966;BMP280;54749;47.850;9.002;2023-06-14T08:12:05;95417.31;;;35.70
67966;BMP280;54749;47.850;9.002;2023-06-14T08:14:34;95434.91;;;35.19
67966;BMP280;54749;47.850;9.002;2023-06-14T08:17:02;95430.50;;;35.65
67966;BMP280;54749;47.850;9.002;2023-06-14T08:19:29;95429.22;;;35.35
67966;BMP280;54749;47.850;9.002;2023-06-14T08:21:56;95424.22;;;36.07
67966;BMP280;54749;47.850;9.002;2023-06-14T08:24:24;95429.88;;;35.22
67966;BMP280;54749;47.850;9.002;2023-06-14T08:26:51;95427.16;;;35.83
67966;BMP280;54749;47.850;9.002;2023-06-14T08:29:19;95423.88;;;36.13
67966;BMP280;54749;47.850;9.002;2023-06-14T08:31:47;95424.06;;;35.25
67966;BMP280;54749;47.850;9.002;2023-06-14T08:34:14;95438.50;;;34.58
67966;BMP280;54749;47.850;9.002;2023-06-14T08:36:42;95439.84;;;34.50
67966;BMP280;54749;47.850;9.002;2023-06-14T08:39:09;95443.00;;;34.05
67966;BMP280;54749;47.850;9.002;2023-06-14T08:41:37;95450.50;;;34.21
67966;BMP280;54749;47.850;9.002;2023-06-14T08:44:04;95438.06;;;35.44
67966;BMP280;54749;47.850;9.002;2023-06-14T08:46:33;95441.56;;;35.62
67966;BMP280;54749;47.850;9.002;2023-06-14T08:49:01;95451.09;;;35.31
67966;BMP280;54749;47.850;9.002;2023-06-14T08:51:30;95453.19;;;35.01
67966;BMP280;54749;47.850;9.002;2023-06-14T08:54:01;95445.84;;;34.09
67966;BMP280;54749;47.850;9.002;2023-06-14T08:56:31;95458.94;;;35.03
67966;BMP280;54749;47.850;9.002;2023-06-14T08:58:58;95443.81;;;35.46
67966;BMP280;54749;47.850;9.002;2023-06-14T09:01:33;95442.09;;;36.10
67966;BMP280;54749;47.850;9.002;2023-06-14T09:04:02;95447.31;;;35.69
67966;BMP280;54749;47.850;9.002;2023-06-14T09:06:29;95450.97;;;36.55
67966;BMP280;54749;47.850;9.002;2023-06-14T09:08:57;95444.50;;;37.01
67966;BMP280;54749;47.850;9.002;2023-06-14T09:11:24;95442.47;;;37.43
67966;BMP280;54749;47.850;9.002;2023-06-14T09:13:53;95441.59;;;37.16
67966;BMP280;54749;47.850;9.002;2023-06-14T09:16:20;95431.78;;;37.79
67966;BMP280;54749;47.850;9.002;2023-06-14T09:18:47;95440.84;;;37.29
67966;BMP280;54749;47.850;9.002;2023-06-14T09:21:16;95441.44;;;36.95
67966;BMP280;54749;47.850;9.002;2023-06-14T09:23:45;95444.34;;;37.24
67966;BMP280;54749;47.850;9.002;2023-06-14T09:26:14;95448.91;;;35.38
67966;BMP280;54749;47.850;9.002;2023-06-14T09:28:45;95433.41;;;36.45
67966;BMP280;54749;47.850;9.002;2023-06-14T09:31:14;95437.06;;;37.03
67966;BMP280;54749;47.850;9.002;2023-06-14T09:33:49;95447.31;;;36.15
67966;BMP280;54749;47.850;9.002;2023-06-14T09:36:26;95453.91;;;34.74
67966;BMP280;54749;47.850;9.002;2023-06-14T09:38:59;95440.16;;;36.15
67966;BMP280;54749;47.850;9.002;2023-06-14T09:41:36;95432.06;;;37.33
67966;BMP280;54749;47.850;9.002;2023-06-14T09:44:06;95437.38;;;37.15
67966;BMP280;54749;47.850;9.002;2023-06-14T09:46:39;95452.34;;;36.70
67966;BMP280;54749;47.850;9.002;2023-06-14T09:49:08;95446.19;;;36.93
67966;BMP280;54749;47.850;9.002;2023-06-14T09:51:45;95441.22;;;37.53
67966;BMP280;54749;47.850;9.002;2023-06-14T09:54:15;95448.31;;;37.40
67966;BMP280;54749;47.850;9.002;2023-06-14T09:56:47;95451.09;;;36.04
67966;BMP280;54749;47.850;9.002;2023-06-14T09:59:16;95444.56;;;35.79
67966;BMP280;54749;47.850;9.002;2023-06-14T10:01:46;95441.78;;;36.88
67966;BMP280;54749;47.850;9.002;2023-06-14T10:04:18;95439.38;;;36.56
67966;BMP280;54749;47.850;9.002;2023-06-14T10:06:47;95457.84;;;32.75
67966;BMP280;54749;47.850;9.002;2023-06-14T10:09:14;95450.41;;;34.46
67966;BMP280;54749;47.850;9.002;2023-06-14T10:11:41;95436.28;;;36.31
67966;BMP280;54749;47.850;9.002;2023-06-14T10:14:12;95448.28;;;35.22
67966;BMP280;54749;47.850;9.002;2023-06-14T10:19:46;95440.56;;;36.04
67966;BMP280;54749;47.850;9.002;2023-06-14T10:22:41;95455.66;;;34.88
67966;BMP280;54749;47.850;9.002;2023-06-14T10:25:13;95450.03;;;35.82
67966;BMP280;54749;47.850;9.002;2023-06-14T10:27:44;95444.38;;;35.93
67966;BMP280;54749;47.850;9.002;2023-06-14T10:30:14;95435.56;;;35.57
67966;BMP280;54749;47.850;9.002;2023-06-14T10:33:05;95432.72;;;35.54
67966;BMP280;54749;47.850;9.002;2023-06-14T10:35:37;95435.78;;;35.65
67966;BMP280;54749;47.850;9.002;2023-06-14T10:38:12;95440.69;;;36.35
67966;BMP280;54749;47.850;9.002;2023-06-14T10:40:40;95429.09;;;36.36
67966;BMP280;54749;47.850;9.002;2023-06-14T10:43:21;95420.47;;;36.67
67966;BMP280;54749;47.850;9.002;2023-06-14T10:46:19;95426.88;;;36.43
67966;BMP280;54749;47.850;9.002;2023-06-14T10:48:56;95434.78;;;35.84
67966;BMP280;54749;47.850;9.002;2023-06-14T10:51:24;95432.78;;;36.17
67966;BMP280;54749;47.850;9.002;2023-06-14T10:53:56;95429.56;;;34.12
67966;BMP280;54749;47.850;9.002;2023-06-14T10:58:57;95424.22;;;35.06
67966;BMP280;54749;47.850;9.002;2023-06-14T11:01:41;95411.13;;;35.01
67966;BMP280;54749;47.850;9.002;2023-06-14T11:04:12;95423.72;;;34.76
67966;BMP280;54749;47.850;9.002;2023-06-14T11:06:48;95423.41;;;34.40
67966;BMP280;54749;47.850;9.002;2023-06-14T11:12:07;95431.81;;;32.30
67966;BMP280;54749;47.850;9.002;2023-06-14T11:14:38;95449.69;;;31.32
67966;BMP280;54749;47.850;9.002;2023-06-14T11:17:05;95455.22;;;30.23
67966;BMP280;54749;47.850;9.002;2023-06-14T11:19:33;95444.34;;;30.52
67966;BMP280;54749;47.850;9.002;2023-06-14T11:22:00;95459.13;;;29.58
67966;BMP280;54749;47.850;9.002;2023-06-14T11:24:27;95460.13;;;29.36
67966;BMP280;54749;47.850;9.002;2023-06-14T11:26:55;95469.28;;;29.06
67966;BMP280;54749;47.850;9.002;2023-06-14T11:29:24;95439.91;;;29.43
67966;BMP280;54749;47.850;9.002;2023-06-14T11:31:51;95451.78;;;29.76
67966;BMP280;54749;47.850;9.002;2023-06-14T11:34:19;95454.81;;;28.67
67966;BMP280;54749;47.850;9.002;2023-06-14T11:36:47;95447.50;;;29.28
67966;BMP280;54749;47.850;9.002;2023-06-14T11:39:14;95434.69;;;29.43
67966;BMP280;54749;47.850;9.002;2023-06-14T11:41:43;95437.97;;;29.54
67966;BMP280;54749;47.850;9.002;2023-06-14T11:44:11;95434.81;;;29.16
67966;BMP280;54749;47.850;9.002;2023-06-14T11:46:39;95450.31;;;28.47
67966;BMP280;54749;47.850;9.002;2023-06-14T11:49:07;95439.59;;;28.59
67966;BMP280;54749;47.850;9.002;2023-06-14T11:51:35;95441.66;;;29.05
67966;BMP280;54749;47.850;9.002;2023-06-14T11:54:03;95430.94;;;29.34
67966;BMP280;54749;47.850;9.002;2023-06-14T11:56:31;95435.50;;;28.63
67966;BMP280;54749;47.850;9.002;2023-06-14T11:58:59;95439.81;;;28.26
67966;BMP280;54749;47.850;9.002;2023-06-14T12:01:29;95431.72;;;28.70
67966;BMP280;54749;47.850;9.002;2023-06-14T12:03:57;95426.41;;;28.77
67966;BMP280;54749;47.850;9.002;2023-06-14T12:06:28;95431.13;;;28.96
67966;BMP280;54749;47.850;9.002;2023-06-14T12:08:58;95422.38;;;29.22
67966;BMP280;54749;47.850;9.002;2023-06-14T12:11:34;95423.00;;;28.92
67966;BMP280;54749;47.850;9.002;2023-06-14T12:14:03;95433.16;;;28.94
67966;BMP280;54749;47.850;9.002;2023-06-14T12:16:33;95424.78;;;28.60
67966;BMP280;54749;47.850;9.002;2023-06-14T12:19:07;95421.94;;;28.45
67966;BMP280;54749;47.850;9.002;2023-06-14T12:21:36;95425.91;;;27.93
67966;BMP280;54749;47.850;9.002;2023-06-14T12:24:06;95428.25;;;27.56
67966;BMP280;54749;47.850;9.002;2023-06-14T12:26:37;95425.34;;;27.41
67966;BMP280;54749;47.850;9.002;2023-06-14T12:29:05;95417.44;;;27.37
67966;BMP280;54749;47.850;9.002;2023-06-14T12:31:33;95415.41;;;27.61
67966;BMP280;54749;47.850;9.002;2023-06-14T12:34:00;95422.72;;;27.64
67966;BMP280;54749;47.850;9.002;2023-06-14T12:36:28;95415.19;;;27.90
67966;BMP280;54749;47.850;9.002;2023-06-14T12:38:55;95418.56;;;27.63
67966;BMP280;54749;47.850;9.002;2023-06-14T12:41:22;95419.34;;;27.63
67966;BMP280;54749;47.850;9.002;2023-06-14T12:43:50;95420.94;;;27.42
67966;BMP280;54749;47.850;9.002;2023-06-14T12:46:17;95420.78;;;27.71
67966;BMP280;54749;47.850;9.002;2023-06-14T12:48:45;95401.97;;;27.64
67966;BMP280;54749;47.850;9.002;2023-06-14T12:51:12;95411.84;;;27.78
67966;BMP280;54749;47.850;9.002;2023-06-14T12:53:40;95427.66;;;27.16
67966;BMP280;54749;47.850;9.002;2023-06-14T12:56:07;95420.88;;;27.15
67966;BMP280;54749;47.850;9.002;2023-06-14T12:58:34;95433.97;;;27.31
67966;BMP280;54749;47.850;9.002;2023-06-14T13:01:02;95418.28;;;27.15
67966;BMP280;54749;47.850;9.002;2023-06-14T13:03:29;95429.25;;;27.06
67966;BMP280;54749;47.850;9.002;2023-06-14T13:05:57;95426.41;;;27.07
67966;BMP280;54749;47.850;9.002;2023-06-14T13:08:24;95422.34;;;27.00
67966;BMP280;54749;47.850;9.002;2023-06-14T13:10:51;95419.50;;;27.23
67966;BMP280;54749;47.850;9.002;2023-06-14T13:13:18;95427.06;;;27.25
67966;BMP280;54749;47.850;9.002;2023-06-14T13:15:46;95423.38;;;27.10
67966;BMP280;54749;47.850;9.002;2023-06-14T13:18:13;95418.28;;;27.04
67966;BMP280;54749;47.850;9.002;2023-06-14T13:20:41;95429.78;;;26.74
67966;BMP280;54749;47.850;9.002;2023-06-14T13:23:09;95441.00;;;26.46
67966;BMP280;54749;47.850;9.002;2023-06-14T13:25:37;95424.81;;;26.84
67966;BMP280;54749;47.850;9.002;2023-06-14T13:28:04;95422.13;;;27.01
67966;BMP280;54749;47.850;9.002;2023-06-14T13:30:32;95433.28;;;26.79
67966;BMP280;54749;47.850;9.002;2023-06-14T13:33:00;95426.16;;;26.75
67966;BMP280;54749;47.850;9.002;2023-06-14T13:35:27;95431.00;;;26.83
67966;BMP280;54749;47.850;9.002;2023-06-14T13:37:54;95416.78;;;26.85
67966;BMP280;54749;47.850;9.002;2023-06-14T13:40:22;95428.31;;;26.67
67966;BMP280;54749;47.850;9.002;2023-06-14T13:42:49;95421.88;;;26.58
67966;BMP280;54749;47.850;9.002;2023-06-14T13:45:16;95421.41;;;26.61
67966;BMP280;54749;47.850;9.002;2023-06-14T13:47:44;95432.53;;;26.50
67966;BMP280;54749;47.850;9.002;2023-06-14T13:50:12;95424.47;;;26.58
67966;BMP280;54749;47.850;9.002;2023-06-14T13:52:40;95424.25;;;26.82
67966;BMP280;54749;47.850;9.002;2023-06-14T13:55:07;95419.50;;;26.90
67966;BMP280;54749;47.850;9.002;2023-06-14T13:57:35;95414.81;;;27.09
67966;BMP280;54749;47.850;9.002;2023-06-14T14:00:02;95419.28;;;27.25
67966;BMP280;54749;47.850;9.002;2023-06-14T14:02:38;95409.56;;;27.32
67966;BMP280;54749;47.850;9.002;2023-06-14T14:05:08;95422.59;;;27.09
67966;BMP280;54749;47.850;9.002;2023-06-14T14:07:35;95412.09;;;27.05
67966;BMP280;54749;47.850;9.002;2023-06-14T14:10:03;95412.22;;;27.09
67966;BMP280;54749;47.850;9.002;2023-06-14T14:12:30;95419.81;;;26.71
67966;BMP280;54749;47.850;9.002;2023-06-14T14:14:58;95430.91;;;26.27
67966;BMP280;54749;47.850;9.002;2023-06-14T14:17:25;95429.06;;;26.16
67966;BMP280;54749;47.850;9.002;2023-06-14T14:19:54;95423.78;;;25.94
67966;BMP280;54749;47.850;9.002;2023-06-14T14:22:23;95426.75;;;25.80
67966;BMP280;54749;47.850;9.002;2023-06-14T14:24:51;95423.94;;;25.99
67966;BMP280;54749;47.850;9.002;2023-06-14T14:27:18;95423.06;;;26.04